Time;durP1;ratioP1;P1;durP2;ratioP2;P2;SDS_P1;SDS_P2;PMS_P1;PMS_P2;Temp;Humidity;BMP_temperature;BMP_pressure;BME280_temperature;BME280_humidity;BME280_pressure;Samples;Min_cycle;Max_cycle;Signal;HPM_P1;HPM_P2
2022/09/01 00:02:07;;;;;;;7.25;6.65;;;15.80;99.90;;;;;;5030323;28;20414;-77
2022/09/01 00:04:37;;;;;;;7.80;7.10;;;15.70;99.90;;;;;;5029942;28;20754;-76
2022/09/01 00:07:04;;;;;;;8.20;7.40;;;15.80;99.90;;;;;;5012355;28;20410;-76
2022/09/01 00:09:30;;;;;;;7.85;7.15;;;15.80;99.90;;;;;;5030208;28;20434;-76
2022/09/01 00:11:56;;;;;;;7.50;6.90;;;15.90;99.90;;;;;;5030079;28;20420;-76
2022/09/01 00:14:25;;;;;;;7.45;6.85;;;15.90;99.90;;;;;;5029718;28;20383;-77
2022/09/01 00:16:51;;;;;;;7.28;6.57;;;15.90;99.90;;;;;;5012138;28;20403;-76
2022/09/01 00:19:16;;;;;;;7.05;6.13;;;15.90;99.90;;;;;;5012188;28;20920;-76
2022/09/01 00:21:43;;;;;;;7.80;7.00;;;16.00;99.90;;;;;;5029921;28;20411;-76
2022/09/01 00:24:11;;;;;;;7.43;6.78;;;15.90;99.90;;;;;;5011905;28;20423;-76
2022/09/01 00:26:36;;;;;;;7.13;6.43;;;16.00;99.90;;;;;;5012196;28;20754;-76
2022/09/01 00:29:02;;;;;;;8.48;6.35;;;15.90;99.90;;;;;;5029928;28;20391;-77
2022/09/01 00:31:28;;;;;;;7.13;6.43;;;15.90;99.90;;;;;;5030314;28;20441;-76
2022/09/01 00:33:54;;;;;;;6.82;5.80;;;15.90;99.90;;;;;;5029694;28;20392;-76
2022/09/01 00:36:20;;;;;;;7.53;6.50;;;15.90;99.90;;;;;;5029910;28;20466;-77
2022/09/01 00:38:47;;;;;;;6.80;6.10;;;16.10;99.90;;;;;;5029775;28;20486;-77
2022/09/01 00:41:14;;;;;;;7.10;6.50;;;16.00;99.90;;;;;;5011711;28;20415;-76
2022/09/01 00:43:55;;;;;;;6.90;6.40;;;15.90;99.90;;;;;;5011573;28;20383;-76
2022/09/01 00:46:23;;;;;;;7.30;6.70;;;15.90;99.90;;;;;;5029428;28;20761;-76
2022/09/01 00:48:58;;;;;;;7.20;6.50;;;15.90;99.90;;;;;;5029515;28;20379;-76
2022/09/01 00:51:25;;;;;;;6.82;6.32;;;15.80;99.90;;;;;;5029807;28;20382;-76
2022/09/01 00:53:51;;;;;;;6.50;5.90;;;15.90;99.90;;;;;;5011560;28;20526;-76
2022/09/01 00:56:18;;;;;;;7.18;6.57;;;15.70;99.90;;;;;;5011799;28;20404;-76
2022/09/01 00:58:44;;;;;;;7.57;6.00;;;15.80;99.90;;;;;;5029524;28;20395;-76
2022/09/01 01:01:11;;;;;;;6.47;5.88;;;15.80;99.90;;;;;;5029578;28;20472;-76
2022/09/01 01:03:38;;;;;;;7.03;6.32;;;15.80;99.90;;;;;;5029357;28;20390;-76
2022/09/01 01:06:07;;;;;;;7.28;5.93;;;15.80;99.90;;;;;;5029634;28;20466;-77
2022/09/01 01:08:35;;;;;;;7.20;5.90;;;15.90;99.90;;;;;;5029469;28;20376;-77
2022/09/01 01:11:08;;;;;;;9.10;5.78;;;15.90;99.90;;;;;;5030231;28;20409;-77
2022/09/01 01:13:56;;;;;;;6.30;5.80;;;15.90;99.90;;;;;;5049962;28;20401;-76
2022/09/01 01:16:24;;;;;;;6.40;5.50;;;15.80;99.90;;;;;;5057751;28;20393;-76
2022/09/01 01:18:50;;;;;;;6.50;5.50;;;15.80;99.90;;;;;;5060840;28;20759;-76
2022/09/01 01:24:33;;;;;;;10.07;6.13;;;15.70;99.90;;;;;;5069051;28;20371;-77
2022/09/01 01:26:59;;;;;;;6.20;5.60;;;15.70;99.90;;;;;;5069199;28;20934;-77
2022/09/01 01:29:36;;;;;;;6.20;5.60;;;15.60;99.90;;;;;;5051136;28;20781;-77
2022/09/01 01:32:11;;;;;;;7.25;6.10;;;15.60;99.90;;;;;;5069329;28;20444;-76
2022/09/01 01:34:42;;;;;;;6.63;6.03;;;15.50;99.90;;;;;;5069006;28;20741;-77
2022/09/01 01:37:09;;;;;;;6.57;5.72;;;15.60;99.90;;;;;;5069265;28;20940;-77
2022/09/01 01:39:39;;;;;;;6.20;5.60;;;15.60;99.90;;;;;;5069116;28;20407;-74
2022/09/01 01:42:06;;;;;;;7.00;6.30;;;15.50;99.90;;;;;;5069031;28;20913;-76
2022/09/01 01:44:32;;;;;;;6.80;6.10;;;15.50;99.90;;;;;;5068843;28;20379;-76
2022/09/01 01:46:58;;;;;;;8.85;6.22;;;15.40;99.90;;;;;;5068502;28;20402;-76
2022/09/01 01:49:26;;;;;;;6.20;5.60;;;15.40;99.90;;;;;;5069104;28;20383;-76
2022/09/01 01:51:54;;;;;;;7.25;6.65;;;15.50;99.90;;;;;;5051053;28;20391;-76
2022/09/01 01:54:21;;;;;;;8.63;6.55;;;15.60;99.90;;;;;;5072253;28;20878;-76
2022/09/01 01:56:47;;;;;;;7.07;6.38;;;15.50;99.90;;;;;;5054752;28;20791;-76
2022/09/01 01:59:13;;;;;;;6.43;5.82;;;15.40;99.90;;;;;;5072536;28;20387;-75
2022/09/01 02:01:41;;;;;;;7.07;6.30;;;15.30;99.90;;;;;;5072445;28;20996;-75
2022/09/01 02:04:08;;;;;;;6.90;6.20;;;15.40;99.90;;;;;;5072152;28;20387;-76
2022/09/01 02:06:34;;;;;;;6.50;6.00;;;15.50;99.90;;;;;;5072200;28;20483;-75
2022/09/01 02:09:02;;;;;;;7.10;6.40;;;15.50;99.90;;;;;;5072303;28;20402;-75
2022/09/01 02:11:32;;;;;;;6.63;6.00;;;15.50;99.90;;;;;;5054239;28;20438;-77
2022/09/01 02:13:58;;;;;;;7.40;6.50;;;15.50;99.90;;;;;;5071976;28;20387;-77
2022/09/01 02:16:25;;;;;;;6.90;6.30;;;15.50;99.90;;;;;;5072243;28;20386;-77
2022/09/01 02:18:52;;;;;;;7.15;6.55;;;15.50;99.90;;;;;;5072199;28;20891;-78
2022/09/01 02:21:21;;;;;;;7.00;6.20;;;15.50;99.90;;;;;;5072059;28;20431;-78
2022/09/01 02:23:49;;;;;;;6.10;5.60;;;15.50;99.90;;;;;;5053762;28;20486;-78
2022/09/01 02:26:17;;;;;;;6.55;5.95;;;15.40;99.90;;;;;;5072095;28;20382;-78
2022/09/01 02:28:48;;;;;;;6.65;6.05;;;15.40;99.90;;;;;;5053959;28;20734;-77
2022/09/01 02:31:13;;;;;;;6.88;6.10;;;15.50;99.90;;;;;;5072035;28;20395;-78
2022/09/01 02:33:42;;;;;;;6.63;5.93;;;15.50;99.90;;;;;;5071567;28;20814;-78
2022/09/01 02:36:13;;;;;;;7.30;6.53;;;15.40;99.90;;;;;;5071886;28;20391;-77
2022/09/01 02:38:41;;;;;;;7.28;6.65;;;15.50;99.90;;;;;;5071659;28;20861;-78
2022/09/01 02:41:07;;;;;;;6.75;6.07;;;15.50;99.90;;;;;;5053711;28;20408;-77
2022/09/01 02:43:32;;;;;;;6.88;6.30;;;15.50;99.90;;;;;;5071456;28;20433;-77
2022/09/01 02:46:00;;;;;;;6.63;6.03;;;15.40;99.90;;;;;;5071038;28;20414;-77
2022/09/01 02:48:31;;;;;;;8.05;6.65;;;15.30;99.90;;;;;;5071538;28;20388;-77
2022/09/01 02:50:58;;;;;;;7.90;6.50;;;15.30;99.90;;;;;;5071558;28;20804;-77
2022/09/01 02:53:24;;;;;;;7.80;7.00;;;15.30;99.90;;;;;;5071162;28;20398;-77
2022/09/01 02:55:50;;;;;;;7.70;6.95;;;15.20;99.90;;;;;;5071454;28;20423;-75
2022/09/01 02:58:18;;;;;;;7.57;6.88;;;15.30;99.90;;;;;;5053187;28;20408;-78
2022/09/01 03:00:51;;;;;;;7.07;6.47;;;15.30;99.90;;;;;;5071464;28;20897;-77
2022/09/01 03:03:18;;;;;;;6.70;6.18;;;15.30;99.90;;;;;;5070919;28;20792;-78
2022/09/01 03:05:44;;;;;;;8.20;7.40;;;15.30;99.90;;;;;;5053242;28;20380;-77
2022/09/01 03:08:13;;;;;;;8.30;6.93;;;15.20;99.90;;;;;;5071026;28;20390;-77
2022/09/01 03:10:40;;;;;;;8.07;6.88;;;15.30;99.90;;;;;;5071021;28;20404;-77
2022/09/01 03:13:15;;;;;;;6.90;6.30;;;15.30;99.90;;;;;;5070751;28;20506;-76
2022/09/01 03:15:42;;;;;;;9.10;7.18;;;15.30;99.90;;;;;;5071122;28;20376;-78
2022/09/01 03:18:09;;;;;;;7.90;7.10;;;15.20;99.90;;;;;;5070859;28;20392;-78
2022/09/01 03:20:38;;;;;;;7.45;6.85;;;15.30;99.90;;;;;;5070867;28;20399;-77
2022/09/01 03:23:07;;;;;;;7.50;6.80;;;15.30;99.90;;;;;;5052577;28;20833;-77
2022/09/01 03:25:34;;;;;;;7.03;6.45;;;15.30;99.90;;;;;;5070739;28;21125;-77
2022/09/01 03:28:01;;;;;;;7.65;6.72;;;15.20;99.90;;;;;;5070674;28;20766;-77
2022/09/01 03:30:29;;;;;;;8.32;7.20;;;15.10;99.90;;;;;;5070662;28;20470;-77
2022/09/01 03:32:56;;;;;;;8.00;7.20;;;15.10;99.90;;;;;;5070888;28;20923;-77
2022/09/01 03:35:22;;;;;;;8.23;7.10;;;15.10;99.90;;;;;;5071082;28;20788;-77
2022/09/01 03:37:47;;;;;;;7.80;7.10;;;15.20;99.90;;;;;;5070926;28;20380;-77
2022/09/01 03:40:14;;;;;;;7.63;6.93;;;15.20;99.90;;;;;;5070952;28;21138;-77
2022/09/01 03:42:42;;;;;;;7.93;7.03;;;15.10;99.90;;;;;;5070728;28;20382;-78
2022/09/01 03:45:11;;;;;;;7.93;7.23;;;15.20;99.90;;;;;;5070936;28;20992;-77
2022/09/01 03:47:39;;;;;;;7.93;7.22;;;15.10;99.90;;;;;;5052515;28;20379;-78
2022/09/01 03:50:19;;;;;;;7.75;7.00;;;15.10;99.90;;;;;;5070712;28;20395;-78
2022/09/01 03:52:51;;;;;;;8.23;7.53;;;14.90;99.90;;;;;;5053141;28;20394;-77
2022/09/01 03:55:23;;;;;;;8.10;7.40;;;15.00;99.90;;;;;;5071145;28;20896;-78
2022/09/01 03:57:53;;;;;;;7.60;6.90;;;14.90;99.90;;;;;;5070737;28;20452;-78
2022/09/01 04:00:22;;;;;;;10.40;7.33;;;14.90;99.90;;;;;;5052668;28;20775;-77
2022/09/01 04:02:50;;;;;;;7.93;7.13;;;14.80;99.90;;;;;;5070327;28;20383;-76
2022/09/01 04:05:20;;;;;;;8.00;7.30;;;14.90;99.90;;;;;;5052678;28;20437;-76
2022/09/01 04:07:46;;;;;;;8.02;7.22;;;15.00;99.90;;;;;;5052565;28;20376;-76
2022/09/01 04:10:12;;;;;;;8.25;7.45;;;15.00;99.90;;;;;;5052627;28;20399;-76
2022/09/01 04:12:38;;;;;;;7.70;7.00;;;15.00;99.90;;;;;;5070186;28;20376;-77
2022/09/01 04:15:04;;;;;;;7.67;6.97;;;14.90;99.90;;;;;;5051956;28;20391;-76
2022/09/01 04:20:19;;;;;;;7.30;6.60;;;14.80;99.90;;;;;;5070636;28;20414;-74
2022/09/01 04:22:46;;;;;;;7.80;7.03;;;14.70;99.90;;;;;;5070087;28;20376;-75
2022/09/01 04:25:12;;;;;;;7.60;6.90;;;14.70;99.90;;;;;;5052441;28;20711;-76
2022/09/01 04:27:39;;;;;;;8.90;7.25;;;14.70;99.90;;;;;;5070265;28;20452;-75
2022/09/01 04:30:09;;;;;;;7.43;6.80;;;14.70;99.90;;;;;;5070330;28;20406;-75
2022/09/01 04:32:36;;;;;;;7.72;7.03;;;14.70;99.90;;;;;;5052460;28;20912;-75
2022/09/01 04:35:01;;;;;;;8.30;7.50;;;14.70;99.90;;;;;;5055698;28;20415;-75
2022/09/01 04:37:27;;;;;;;8.30;7.60;;;14.60;99.90;;;;;;5035927;28;20383;-75
2022/09/01 04:39:55;;;;;;;7.60;7.00;;;14.70;99.90;;;;;;5061639;28;20870;-75
2022/09/01 04:42:24;;;;;;;7.90;7.10;;;14.60;99.90;;;;;;5070125;28;20379;-75
2022/09/01 04:44:50;;;;;;;9.35;7.55;;;14.70;99.90;;;;;;5069969;28;20509;-74
2022/09/01 04:47:18;;;;;;;9.43;7.50;;;14.60;99.90;;;;;;5069512;28;20414;-75
2022/09/01 04:49:46;;;;;;;8.25;6.90;;;14.50;99.90;;;;;;5070421;28;20920;-75
2022/09/01 04:52:12;;;;;;;8.10;7.28;;;14.40;99.90;;;;;;5051877;28;20938;-75
2022/09/01 04:54:38;;;;;;;8.27;7.57;;;14.50;99.90;;;;;;5069779;28;20379;-75
2022/09/01 04:57:07;;;;;;;7.60;6.90;;;14.50;99.90;;;;;;5069880;28;20387;-75
2022/09/01 04:59:33;;;;;;;8.70;7.75;;;14.40;99.90;;;;;;5069995;28;20405;-75
2022/09/01 05:01:59;;;;;;;8.20;7.40;;;14.40;99.90;;;;;;5069999;28;20914;-75
2022/09/01 05:04:31;;;;;;;7.50;6.80;;;14.40;99.90;;;;;;5069662;28;20380;-75
2022/09/01 05:07:00;;;;;;;9.00;8.20;;;14.40;99.90;;;;;;5060630;28;20868;-75
2022/09/01 05:09:34;;;;;;;8.30;7.50;;;14.30;99.90;;;;;;5049884;28;20392;-75
2022/09/01 05:12:09;;;;;;;8.20;7.50;;;14.30;99.90;;;;;;5032042;28;20432;-75
2022/09/01 05:14:41;;;;;;;8.35;7.60;;;14.40;99.90;;;;;;5049548;28;20424;-75
2022/09/01 05:17:09;;;;;;;8.18;7.38;;;14.30;99.90;;;;;;5049623;28;20489;-74
2022/09/01 05:19:46;;;;;;;8.30;7.40;;;14.30;99.90;;;;;;5049793;28;20439;-75
2022/09/01 05:22:13;;;;;;;8.27;7.38;;;14.20;99.90;;;;;;5031874;28;20390;-75
2022/09/01 05:24:38;;;;;;;8.00;7.20;;;14.30;99.90;;;;;;5049556;28;20408;-76
2022/09/01 05:27:05;;;;;;;8.43;7.53;;;14.30;99.90;;;;;;5049843;28;20374;-76
2022/09/01 05:29:30;;;;;;;8.60;7.90;;;14.30;99.90;;;;;;5053530;28;20377;-75
2022/09/01 05:31:57;;;;;;;8.67;7.80;;;14.30;99.90;;;;;;5035521;28;21221;-75
2022/09/01 05:34:28;;;;;;;8.85;7.22;;;14.40;99.90;;;;;;5053412;28;20389;-73
2022/09/01 05:36:56;;;;;;;8.20;7.40;;;14.30;99.90;;;;;;5035647;28;20476;-73
2022/09/01 05:39:23;;;;;;;9.15;7.30;;;14.50;99.90;;;;;;5053427;28;20438;-74
2022/09/01 05:41:49;;;;;;;8.27;7.40;;;14.40;99.90;;;;;;5035449;28;20447;-75
2022/09/01 05:44:15;;;;;;;8.60;7.80;;;14.50;99.90;;;;;;5035079;28;20950;-76
2022/09/01 05:46:43;;;;;;;8.20;7.50;;;14.50;99.90;;;;;;5034861;28;20393;-75
2022/09/01 05:49:14;;;;;;;8.67;7.80;;;14.50;99.90;;;;;;5053368;28;20404;-75
2022/09/01 05:51:42;;;;;;;8.50;7.70;;;14.40;99.90;;;;;;5035404;28;20394;-76
2022/09/01 05:54:10;;;;;;;8.70;7.43;;;14.60;99.90;;;;;;5052793;28;20519;-73
2022/09/01 05:56:39;;;;;;;7.75;7.15;;;14.70;99.90;;;;;;5034868;28;20429;-74
2022/09/01 05:59:05;;;;;;;8.70;7.90;;;14.60;99.90;;;;;;5053186;28;20456;-75
2022/09/01 06:01:32;;;;;;;8.53;7.60;;;14.70;99.90;;;;;;5034998;28;20923;-74
2022/09/01 06:04:02;;;;;;;7.97;7.28;;;14.80;99.90;;;;;;5034688;28;20393;-73
2022/09/01 06:06:34;;;;;;;8.15;7.38;;;14.90;99.90;;;;;;5052796;28;20408;-73
2022/09/01 06:09:01;;;;;;;8.25;7.45;;;14.80;99.90;;;;;;5052859;28;20392;-74
2022/09/01 06:11:31;;;;;;;8.02;7.32;;;14.90;99.90;;;;;;5052811;28;20871;-74
2022/09/01 06:14:01;;;;;;;7.57;6.88;;;15.10;99.90;;;;;;5052527;28;20766;-74
2022/09/01 06:16:27;;;;;;;7.57;6.80;;;15.30;99.90;;;;;;5034730;28;20382;-75
2022/09/01 06:18:54;;;;;;;7.10;6.40;;;15.30;99.90;;;;;;5039931;28;20825;-74
2022/09/01 06:21:23;;;;;;;7.70;7.00;;;15.40;99.90;;;;;;5058544;28;20405;-75
2022/09/01 06:23:52;;;;;;;7.25;6.55;;;15.50;99.90;;;;;;5051375;28;20427;-74
2022/09/01 06:26:22;;;;;;;8.30;7.03;;;15.60;99.90;;;;;;5058063;28;20399;-75
2022/09/01 06:28:53;;;;;;;6.28;5.63;;;15.70;99.90;;;;;;5060144;28;20470;-75
2022/09/01 06:31:28;;;;;;;6.25;5.70;;;15.70;99.90;;;;;;5036150;28;20502;-75
2022/09/01 06:33:55;;;;;;;6.05;5.45;;;15.90;99.90;;;;;;5060934;28;20403;-75
2022/09/01 06:36:22;;;;;;;5.40;4.97;;;16.00;99.90;;;;;;5039181;28;20781;-74
2022/09/01 06:38:50;;;;;;;5.43;4.93;;;16.20;99.90;;;;;;5051038;28;20392;-75
2022/09/01 06:41:18;;;;;;;5.20;4.80;;;16.30;99.90;;;;;;5054402;28;20457;-75
2022/09/01 06:43:48;;;;;;;8.32;5.20;;;16.40;99.90;;;;;;5033012;28;20394;-74
2022/09/01 06:46:15;;;;;;;5.30;4.80;;;16.50;99.90;;;;;;5040557;28;20423;-74
2022/09/01 06:48:45;;;;;;;5.18;4.68;;;16.60;99.90;;;;;;5034454;28;20971;-74
2022/09/01 06:51:17;;;;;;;4.80;4.40;;;16.70;99.90;;;;;;5034174;28;20397;-74
2022/09/01 06:53:45;;;;;;;4.40;4.10;;;16.70;99.90;;;;;;5051777;28;20392;-75
2022/09/01 06:56:12;;;;;;;4.00;3.70;;;16.80;99.90;;;;;;5040640;28;20785;-74
2022/09/01 06:58:40;;;;;;;4.50;4.10;;;16.80;99.90;;;;;;5035490;28;20914;-74
2022/09/01 07:01:18;;;;;;;4.30;3.75;;;16.90;99.90;;;;;;5043228;28;20413;-74
2022/09/01 07:03:46;;;;;;;4.38;4.07;;;17.00;99.90;;;;;;5045280;28;20402;-74
2022/09/01 07:06:14;;;;;;;4.15;3.85;;;17.00;99.90;;;;;;5049484;28;20695;-74
2022/09/01 07:08:40;;;;;;;3.80;3.50;;;17.20;99.90;;;;;;5024119;28;21474;-72
2022/09/01 07:11:15;;;;;;;3.87;3.57;;;17.30;99.90;;;;;;5035303;28;20422;-73
2022/09/01 07:13:41;;;;;;;4.10;3.80;;;17.30;99.90;;;;;;5053429;28;20817;-73
2022/09/01 07:16:06;;;;;;;4.00;3.70;;;17.40;99.90;;;;;;5071578;28;20467;-75
2022/09/01 07:18:33;;;;;;;3.75;3.45;;;17.40;99.90;;;;;;5034374;28;20417;-73
2022/09/01 07:21:06;;;;;;;4.13;3.80;;;17.40;99.90;;;;;;5027568;28;20420;-72
2022/09/01 07:23:32;;;;;;;3.88;3.58;;;17.50;99.90;;;;;;5032440;28;20788;-73
2022/09/01 07:25:57;;;;;;;3.90;3.60;;;17.50;99.90;;;;;;5039298;28;20392;-74
2022/09/01 07:28:28;;;;;;;4.27;3.27;;;17.60;99.90;;;;;;5066091;28;20423;-73
2022/09/01 07:30:55;;;;;;;4.25;3.85;;;17.60;99.90;;;;;;5042068;28;20398;-73
2022/09/01 07:33:23;;;;;;;3.50;3.20;;;17.80;99.90;;;;;;5014078;28;20391;-73
2022/09/01 07:35:54;;;;;;;3.47;3.17;;;17.80;99.90;;;;;;5039046;28;20411;-73
2022/09/01 07:38:20;;;;;;;3.35;3.10;;;17.90;99.90;;;;;;5053130;28;20456;-73
2022/09/01 07:40:46;;;;;;;3.40;3.20;;;17.90;99.90;;;;;;5040234;28;20427;-74
2022/09/01 07:43:23;;;;;;;3.50;3.20;;;18.00;99.90;;;;;;5050884;28;20387;-74
2022/09/01 07:45:50;;;;;;;3.50;3.20;;;18.00;99.90;;;;;;5033154;28;20390;-73
2022/09/01 07:48:21;;;;;;;3.88;3.58;;;18.20;99.90;;;;;;5034264;28;20391;-74
2022/09/01 07:50:50;;;;;;;3.75;3.45;;;18.30;99.90;;;;;;5017105;28;20422;-73
2022/09/01 07:53:21;;;;;;;4.00;3.70;;;18.40;99.90;;;;;;5032491;28;20421;-74
2022/09/01 07:55:49;;;;;;;3.25;3.05;;;18.40;99.90;;;;;;5036945;28;20404;-75
2022/09/01 07:58:20;;;;;;;4.30;3.40;;;18.40;99.90;;;;;;5035675;28;20405;-73
2022/09/01 08:00:48;;;;;;;4.70;3.50;;;18.40;99.90;;;;;;5033889;28;20441;-74
2022/09/01 08:03:15;;;;;;;3.85;3.55;;;18.50;99.90;;;;;;5065897;28;20379;-74
2022/09/01 08:05:42;;;;;;;4.68;3.40;;;18.50;99.90;;;;;;5049898;28;20783;-73
2022/09/01 08:08:07;;;;;;;3.25;2.95;;;18.50;99.90;;;;;;5045194;28;20459;-74
2022/09/01 08:10:37;;;;;;;3.25;2.95;;;18.60;99.90;;;;;;5029280;28;20413;-74
2022/09/01 08:13:03;;;;;;;3.70;3.40;;;18.60;99.90;;;;;;5039354;28;21120;-74
2022/09/01 08:15:28;;;;;;;3.40;3.10;;;18.70;99.90;;;;;;5048876;28;20520;-74
2022/09/01 08:17:54;;;;;;;3.60;3.30;;;18.70;99.90;;;;;;5037301;28;20488;-74
2022/09/01 08:20:19;;;;;;;3.13;2.93;;;18.80;99.90;;;;;;5035772;28;20516;-73
2022/09/01 08:22:45;;;;;;;3.25;2.95;;;18.90;99.90;;;;;;5036587;28;20958;-74
2022/09/01 08:25:10;;;;;;;3.27;3.07;;;18.90;99.90;;;;;;5017428;28;21004;-74
2022/09/01 08:27:40;;;;;;;3.10;2.90;;;18.80;99.90;;;;;;5035426;28;20490;-74
2022/09/01 08:30:08;;;;;;;5.70;5.10;;;18.90;99.90;;;;;;5044105;28;20428;-74
2022/09/01 08:32:34;;;;;;;7.45;6.85;;;19.00;99.90;;;;;;5041831;28;20418;-73
2022/09/01 08:35:00;;;;;;;7.82;7.03;;;18.80;99.90;;;;;;5027933;28;20435;-74
2022/09/01 08:37:26;;;;;;;8.13;7.43;;;18.70;99.90;;;;;;5031927;28;20378;-73
2022/09/01 08:39:52;;;;;;;8.30;7.40;;;18.70;99.90;;;;;;5050025;28;20472;-74
2022/09/01 08:42:46;;;;;;;9.27;8.40;;;18.70;99.90;;;;;;5050032;28;20578;-73
2022/09/01 08:45:24;;;;;;;11.13;9.93;;;18.50;99.90;;;;;;5031543;28;20436;-75
2022/09/01 08:47:56;;;;;;;10.68;9.68;;;18.50;99.90;;;;;;5050037;28;20412;-73
2022/09/01 08:50:22;;;;;;;10.60;9.60;;;18.30;99.90;;;;;;5032255;28;20404;-74
2022/09/01 08:53:01;;;;;;;11.40;10.30;;;18.20;99.90;;;;;;5049845;28;20457;-74
2022/09/01 08:55:43;;;;;;;12.18;11.02;;;18.40;99.90;;;;;;5049950;28;20382;-74
2022/09/01 08:58:14;;;;;;;12.30;11.10;;;18.40;99.90;;;;;;5050035;28;20414;-74
2022/09/01 09:00:43;;;;;;;10.65;9.75;;;18.40;99.90;;;;;;5049917;28;20393;-74
2022/09/01 09:03:41;;;;;;;11.73;10.52;;;18.50;99.90;;;;;;5053533;28;20377;-73
2022/09/01 09:06:20;;;;;;;11.07;10.07;;;18.50;99.90;;;;;;5036144;28;20381;-74
2022/09/01 09:08:55;;;;;;;11.93;10.70;;;18.50;99.90;;;;;;5053871;28;20390;-74
2022/09/01 09:11:50;;;;;;;10.68;9.63;;;18.40;99.90;;;;;;5053875;28;20385;-73
2022/09/01 09:14:36;;;;;;;11.88;10.68;;;18.60;99.90;;;;;;5053482;28;20381;-74
2022/09/01 09:17:03;;;;;;;11.90;10.70;;;18.60;99.90;;;;;;5053596;28;20954;-74
2022/09/01 09:19:38;;;;;;;12.10;10.88;;;18.80;99.90;;;;;;5053845;28;20384;-74
2022/09/01 09:22:15;;;;;;;11.23;10.20;;;18.70;99.90;;;;;;5053585;28;20397;-74
2022/09/01 09:24:54;;;;;;;11.75;10.50;;;18.80;99.90;;;;;;5053435;28;20381;-74
2022/09/01 09:27:22;;;;;;;11.55;10.35;;;18.70;99.90;;;;;;5053569;28;20434;-74
2022/09/01 09:29:52;;;;;;;12.73;11.30;;;18.80;99.90;;;;;;5053562;28;20962;-74
2022/09/01 09:32:18;;;;;;;11.27;10.17;;;18.90;99.90;;;;;;5053517;28;20385;-73
2022/09/01 09:34:45;;;;;;;10.60;9.50;;;19.00;99.90;;;;;;5053217;28;20790;-77
2022/09/01 09:37:30;;;;;;;10.00;9.10;;;18.90;99.90;;;;;;5053102;28;20401;-74
2022/09/01 09:40:10;;;;;;;10.07;9.18;;;18.90;99.90;;;;;;5053303;28;20377;-74
2022/09/01 09:42:38;;;;;;;10.95;9.85;;;19.10;99.90;;;;;;5035046;28;20385;-74
2022/09/01 09:45:13;;;;;;;10.68;9.57;;;19.10;99.90;;;;;;5052597;28;20382;-73
2022/09/01 09:47:43;;;;;;;9.93;8.98;;;19.10;99.90;;;;;;5052871;28;20468;-74
2022/09/01 09:50:32;;;;;;;10.00;9.10;;;19.30;99.90;;;;;;5035148;28;20755;-75
2022/09/01 09:53:10;;;;;;;10.48;9.48;;;19.50;99.90;;;;;;5052777;28;20461;-74
2022/09/01 09:55:36;;;;;;;9.05;8.25;;;19.40;99.90;;;;;;5052997;28;20389;-75
2022/09/01 09:58:10;;;;;;;10.55;9.18;;;19.60;99.90;;;;;;5052851;28;20382;-76
2022/09/01 10:00:35;;;;;;;10.45;9.48;;;19.60;99.90;;;;;;5034849;28;20933;-74
2022/09/01 10:03:05;;;;;;;10.15;9.25;;;19.60;99.90;;;;;;5034979;28;20381;-75
2022/09/01 10:05:34;;;;;;;9.73;8.88;;;19.60;99.90;;;;;;5052831;28;20378;-75
2022/09/01 10:08:00;;;;;;;9.32;8.52;;;19.80;99.90;;;;;;5052574;28;20436;-74
2022/09/01 10:10:40;;;;;;;9.53;8.73;;;19.90;99.90;;;;;;5052741;28;20421;-74
2022/09/01 10:13:19;;;;;;;9.65;8.65;;;19.80;99.90;;;;;;5051574;28;20421;-75
2022/09/01 10:15:50;;;;;;;9.93;8.93;;;19.80;99.90;;;;;;5052631;28;20484;-74
2022/09/01 10:18:20;;;;;;;9.75;8.90;;;20.00;99.90;;;;;;5052442;28;20448;-74
2022/09/01 10:20:54;;;;;;;9.55;8.65;;;20.00;99.90;;;;;;5052586;28;20516;-74
2022/09/01 10:23:19;;;;;;;8.95;8.15;;;20.10;99.90;;;;;;5034281;28;20385;-73
2022/09/01 10:25:49;;;;;;;8.87;8.07;;;20.20;99.90;;;;;;5052436;28;20382;-74
2022/09/01 10:28:20;;;;;;;8.70;7.90;;;20.40;99.90;;;;;;5052308;28;20419;-74
2022/09/01 10:30:46;;;;;;;7.97;7.22;;;20.50;99.90;;;;;;5034410;28;20390;-75
2022/09/01 10:33:15;;;;;;;7.63;6.93;;;20.60;99.90;;;;;;5052059;28;20400;-74
2022/09/01 10:35:45;;;;;;;6.78;6.07;;;20.60;99.90;;;;;;5052222;28;20401;-75
2022/09/01 10:38:21;;;;;;;6.60;6.10;;;20.60;99.90;;;;;;5052375;28;20424;-73
2022/09/01 10:41:05;;;;;;;7.40;6.70;;;20.80;99.90;;;;;;5052201;28;20432;-74
2022/09/01 10:43:40;;;;;;;6.90;6.30;;;21.00;99.90;;;;;;5051497;28;20420;-74
2022/09/01 10:46:20;;;;;;;6.32;5.72;;;21.10;99.90;;;;;;5052306;28;20377;-73
2022/09/01 10:48:49;;;;;;;5.90;5.40;;;21.50;99.90;;;;;;5052066;28;20389;-73
2022/09/01 10:51:14;;;;;;;6.38;5.78;;;21.10;99.90;;;;;;5034234;28;20389;-74
2022/09/01 10:53:54;;;;;;;6.90;6.18;;;21.30;99.90;;;;;;5033936;28;20405;-74
2022/09/01 10:56:26;;;;;;;5.57;5.18;;;21.60;99.90;;;;;;5034101;28;20943;-73
2022/09/01 10:59:05;;;;;;;5.43;5.03;;;21.40;99.90;;;;;;5051917;28;20713;-73
2022/09/01 11:01:40;;;;;;;4.88;4.47;;;21.70;99.90;;;;;;5051802;28;20451;-74
2022/09/01 11:04:08;;;;;;;5.50;5.00;;;22.00;99.90;;;;;;5051651;28;20864;-73
2022/09/01 11:06:52;;;;;;;5.10;4.60;;;22.20;99.90;;;;;;5051797;28;20385;-74
2022/09/01 11:09:26;;;;;;;5.10;4.70;;;22.50;99.90;;;;;;5051800;28;20384;-74
2022/09/01 11:12:11;;;;;;;5.50;4.87;;;22.60;99.90;;;;;;5051609;28;20378;-73
2022/09/01 11:14:50;;;;;;;5.10;4.60;;;22.80;99.90;;;;;;5051396;28;20389;-73
2022/09/01 11:17:38;;;;;;;5.30;4.90;;;22.60;99.90;;;;;;5051461;28;20459;-74
2022/09/01 11:20:08;;;;;;;4.80;4.32;;;22.50;99.90;;;;;;5033628;28;20393;-75
2022/09/01 11:22:42;;;;;;;5.00;4.60;;;22.70;99.90;;;;;;5051167;28;20384;-74
2022/09/01 11:25:26;;;;;;;4.65;4.30;;;22.70;99.90;;;;;;5033600;28;20418;-75
2022/09/01 11:27:51;;;;;;;5.20;4.80;;;22.60;99.90;;;;;;5051338;28;20381;-76
2022/09/01 11:30:50;;;;;;;4.10;3.80;;;23.40;99.90;;;;;;5033992;28;20381;-74
2022/09/01 11:33:24;;;;;;;4.10;3.80;;;23.80;99.90;;;;;;5033486;28;20401;-75
2022/09/01 11:36:10;;;;;;;4.88;4.47;;;24.10;99.90;;;;;;5051286;28;20397;-75
2022/09/01 11:39:03;;;;;;;4.20;3.90;;;24.20;99.90;;;;;;5051152;28;20413;-75
2022/09/01 11:41:34;;;;;;;3.63;3.33;;;24.90;98.50;;;;;;5051055;28;20431;-75
2022/09/01 11:44:03;;;;;;;3.90;3.60;;;26.00;96.00;;;;;;5050453;28;20377;-76
2022/09/01 11:46:34;;;;;;;3.60;3.30;;;25.50;98.60;;;;;;5033161;28;20909;-76
2022/09/01 11:49:07;;;;;;;3.30;3.10;;;25.70;96.80;;;;;;5051172;28;20835;-76
2022/09/01 11:51:51;;;;;;;3.53;3.33;;;26.30;93.20;;;;;;5051069;28;20415;-76
2022/09/01 11:54:16;;;;;;;2.92;2.72;;;26.10;91.70;;;;;;5050640;28;20835;-75
2022/09/01 11:56:42;;;;;;;3.53;3.23;;;26.20;92.00;;;;;;5050659;28;20384;-75
2022/09/01 11:59:07;;;;;;;3.10;2.90;;;26.10;95.10;;;;;;5050639;28;20403;-75
2022/09/01 12:01:38;;;;;;;3.42;3.22;;;24.90;97.70;;;;;;5043782;28;20419;-73
2022/09/01 12:04:25;;;;;;;3.55;3.25;;;24.10;99.90;;;;;;5030535;28;20395;-74
2022/09/01 12:07:00;;;;;;;3.58;3.30;;;23.70;99.90;;;;;;5038986;28;20381;-74
2022/09/01 12:09:37;;;;;;;3.60;3.40;;;24.60;99.90;;;;;;5038931;28;20399;-74
2022/09/01 12:12:05;;;;;;;3.40;3.20;;;24.10;99.90;;;;;;5038749;28;20408;-73
2022/09/01 12:14:31;;;;;;;3.60;3.30;;;24.30;98.30;;;;;;5042373;28;20440;-75
2022/09/01 12:17:07;;;;;;;3.70;3.40;;;24.30;98.60;;;;;;5021577;28;20453;-74
2022/09/01 12:19:37;;;;;;;3.80;3.50;;;23.90;98.80;;;;;;5015491;28;20488;-73
2022/09/01 12:22:16;;;;;;;4.00;3.70;;;23.60;99.90;;;;;;5037535;28;20409;-75
2022/09/01 12:24:53;;;;;;;3.33;3.13;;;23.30;99.90;;;;;;5048558;28;20862;-73
2022/09/01 12:27:22;;;;;;;3.60;3.30;;;23.40;99.90;;;;;;5037079;28;20414;-74
2022/09/01 12:29:48;;;;;;;3.60;3.30;;;23.40;99.40;;;;;;5057509;28;20433;-74
2022/09/01 12:32:15;;;;;;;3.15;2.95;;;23.50;99.90;;;;;;5048410;28;20979;-73
2022/09/01 12:34:42;;;;;;;3.80;3.50;;;23.70;99.90;;;;;;5053769;28;20412;-74
2022/09/01 12:37:25;;;;;;;3.33;3.03;;;23.60;99.90;;;;;;5028570;28;20762;-73
2022/09/01 12:39:56;;;;;;;3.10;2.90;;;23.90;99.90;;;;;;5045766;28;20404;-73
2022/09/01 12:42:28;;;;;;;3.20;3.00;;;24.70;99.90;;;;;;5043928;28;20488;-74
2022/09/01 12:45:03;;;;;;;3.50;3.28;;;24.30;99.90;;;;;;5056056;28;20465;-74
2022/09/01 12:47:32;;;;;;;3.10;2.80;;;23.70;99.90;;;;;;5028380;28;20901;-74
2022/09/01 12:50:03;;;;;;;3.50;3.20;;;24.20;99.90;;;;;;5054477;28;20487;-74
2022/09/01 12:52:30;;;;;;;3.83;3.53;;;24.30;98.80;;;;;;5052259;28;21112;-75
2022/09/01 12:54:58;;;;;;;3.00;2.80;;;24.80;99.90;;;;;;5047289;28;20403;-74
2022/09/01 12:57:36;;;;;;;3.20;2.90;;;25.70;94.70;;;;;;5039600;28;20405;-73
2022/09/01 13:00:11;;;;;;;3.00;2.80;;;25.80;90.90;;;;;;5045659;28;20449;-74
2022/09/01 13:02:40;;;;;;;2.90;2.70;;;25.90;94.70;;;;;;5045802;28;20399;-75
2022/09/01 13:05:29;;;;;;;2.83;2.63;;;26.20;93.40;;;;;;5045167;28;20897;-74
2022/09/01 13:08:04;;;;;;;3.13;2.90;;;26.20;91.80;;;;;;5021753;28;20413;-75